sensor_id;sensor_type;location;lat;lon;timestamp;pressure;altitude;pressure_sealevel;temperature;humidity
43503;BME280;29098;48.184;16.298;2024-03-08T00:00:26;99724.41;;;3.65;97.32
43503;BME280;29098;48.184;16.298;2024-03-08T00:02:52;99772.63;;;3.71;98.77
43503;BME280;29098;48.184;16.298;2024-03-08T00:05:19;99695.66;;;3.34;100.00
43503;BME280;29098;48.184;16.298;2024-03-08T00:07:46;99689.63;;;3.34;100.00
43503;BME280;29098;48.184;16.298;2024-03-08T00:10:12;99747.69;;;3.57;100.00
43503;BME280;29098;48.184;16.298;2024-03-08T00:12:43;99713.22;;;3.53;100.00
43503;BME280;29098;48.184;16.298;2024-03-08T00:15:09;99738.72;;;3.71;100.00
43503;BME280;29098;48.184;16.298;2024-03-08T00:17:36;99720.34;;;3.51;100.00
43503;BME280;29098;48.184;16.298;2024-03-08T00:20:01;99769.81;;;3.84;100.00
43503;BME280;29098;48.184;16.298;2024-03-08T00:22:28;99764.03;;;3.80;100.00
43503;BME280;29098;48.184;16.298;2024-03-08T00:24:55;99699.91;;;3.56;100.00
43503;BME280;29098;48.184;16.298;2024-03-08T00:27:21;99745.19;;;3.55;100.00
43503;BME280;29098;48.184;16.298;2024-03-08T00:29:47;99729.31;;;3.59;100.00
43503;BME280;29098;48.184;16.298;2024-03-08T00:32:12;99751.50;;;3.74;100.00
43503;BME280;29098;48.184;16.298;2024-03-08T00:34:38;99721.91;;;3.64;100.00
43503;BME280;29098;48.184;16.298;2024-03-08T00:37:04;99694.59;;;3.37;100.00
43503;BME280;29098;48.184;16.298;2024-03-08T00:39:29;99714.38;;;3.39;100.00
43503;BME280;29098;48.184;16.298;2024-03-08T00:41:55;99750.69;;;3.74;100.00
43503;BME280;29098;48.184;16.298;2024-03-08T00:44:20;99715.81;;;3.53;100.00
43503;BME280;29098;48.184;16.298;2024-03-08T00:46:46;99762.44;;;3.68;100.00
43503;BME280;29098;48.184;16.298;2024-03-08T00:49:13;99738.44;;;3.53;100.00
43503;BME280;29098;48.184;16.298;2024-03-08T00:51:39;99755.88;;;3.52;100.00
43503;BME280;29098;48.184;16.298;2024-03-08T00:54:04;99747.13;;;3.53;100.00
43503;BME280;29098;48.184;16.298;2024-03-08T00:56:30;99702.16;;;3.40;100.00
43503;BME280;29098;48.184;16.298;2024-03-08T00:58:55;99709.72;;;3.43;100.00
43503;BME280;29098;48.184;16.298;2024-03-08T01:01:20;99729.16;;;3.39;100.00
43503;BME280;29098;48.184;16.298;2024-03-08T01:03:46;99711.53;;;3.31;100.00
43503;BME280;29098;48.184;16.298;2024-03-08T01:06:11;99747.34;;;3.50;100.00
43503;BME280;29098;48.184;16.298;2024-03-08T01:08:37;99693.38;;;3.41;100.00
43503;BME280;29098;48.184;16.298;2024-03-08T01:11:06;99688.91;;;3.32;100.00
43503;BME280;29098;48.184;16.298;2024-03-08T01:13:31;99695.09;;;3.31;100.00
43503;BME280;29098;48.184;16.298;2024-03-08T01:15:57;99751.66;;;3.40;100.00
43503;BME280;29098;48.184;16.298;2024-03-08T01:18:22;99681.09;;;3.10;100.00
43503;BME280;29098;48.184;16.298;2024-03-08T01:20:48;99703.19;;;3.16;100.00
43503;BME280;29098;48.184;16.298;2024-03-08T01:23:13;99730.34;;;3.35;100.00
43503;BME280;29098;48.184;16.298;2024-03-08T01:25:39;99690.75;;;3.20;100.00
43503;BME280;29098;48.184;16.298;2024-03-08T01:28:05;99651.09;;;2.95;100.00
43503;BME280;29098;48.184;16.298;2024-03-08T01:30:30;99704.72;;;3.19;100.00
43503;BME280;29098;48.184;16.298;2024-03-08T01:32:58;99676.88;;;2.98;100.00
43503;BME280;29098;48.184;16.298;2024-03-08T01:35:23;99720.50;;;3.38;100.00
43503;BME280;29098;48.184;16.298;2024-03-08T01:37:49;99703.28;;;3.26;100.00
43503;BME280;29098;48.184;16.298;2024-03-08T01:40:15;99658.72;;;3.08;100.00
43503;BME280;29098;48.184;16.298;2024-03-08T01:42:42;99642.78;;;3.01;100.00
43503;BME280;29098;48.184;16.298;2024-03-08T01:45:07;99645.50;;;2.99;100.00
43503;BME280;29098;48.184;16.298;2024-03-08T01:47:34;99647.81;;;3.14;100.00
43503;BME280;29098;48.184;16.298;2024-03-08T01:50:01;99689.41;;;3.25;100.00
43503;BME280;29098;48.184;16.298;2024-03-08T01:52:32;99679.28;;;3.11;100.00
43503;BME280;29098;48.184;16.298;2024-03-08T01:55:03;99691.25;;;3.13;100.00
43503;BME280;29098;48.184;16.298;2024-03-08T01:57:32;99635.56;;;2.93;100.00
43503;BME280;29098;48.184;16.298;2024-03-08T02:00:01;99689.22;;;3.17;100.00
43503;BME280;29098;48.184;16.298;2024-03-08T02:02:32;99710.16;;;3.27;100.00
43503;BME280;29098;48.184;16.298;2024-03-08T02:05:00;99704.94;;;3.27;100.00
43503;BME280;29098;48.184;16.298;2024-03-08T02:07:26;99728.50;;;3.25;100.00
43503;BME280;29098;48.184;16.298;2024-03-08T02:09:51;99682.28;;;3.06;100.00
43503;BME280;29098;48.184;16.298;2024-03-08T02:12:16;99716.63;;;3.33;100.00
43503;BME280;29098;48.184;16.298;2024-03-08T02:14:42;99676.50;;;3.03;100.00
43503;BME280;29098;48.184;16.298;2024-03-08T02:17:09;99662.38;;;2.84;100.00
43503;BME280;29098;48.184;16.298;2024-03-08T02:19:34;99674.84;;;3.01;100.00
43503;BME280;29098;48.184;16.298;2024-03-08T02:22:01;99718.13;;;3.14;100.00
43503;BME280;29098;48.184;16.298;2024-03-08T02:24:29;99676.13;;;3.07;100.00
43503;BME280;29098;48.184;16.298;2024-03-08T02:26:55;99702.63;;;3.12;100.00
43503;BME280;29098;48.184;16.298;2024-03-08T02:29:22;99650.31;;;2.83;100.00
43503;BME280;29098;48.184;16.298;2024-03-08T02:31:51;99663.75;;;2.88;100.00
43503;BME280;29098;48.184;16.298;2024-03-08T02:34:16;99682.25;;;2.85;100.00
43503;BME280;29098;48.184;16.298;2024-03-08T02:36:42;99651.44;;;2.57;100.00
43503;BME280;29098;48.184;16.298;2024-03-08T02:39:07;99643.00;;;2.65;100.00
43503;BME280;29098;48.184;16.298;2024-03-08T02:41:33;99653.66;;;2.62;100.00
43503;BME280;29098;48.184;16.298;2024-03-08T02:43:58;99656.47;;;2.70;100.00
43503;BME280;29098;48.184;16.298;2024-03-08T02:46:25;99656.94;;;2.76;100.00
43503;BME280;29098;48.184;16.298;2024-03-08T02:48:50;99650.81;;;2.65;100.00
43503;BME280;29098;48.184;16.298;2024-03-08T02:51:16;99710.22;;;3.04;100.00
43503;BME280;29098;48.184;16.298;2024-03-08T02:53:41;99685.53;;;2.98;100.00
43503;BME280;29098;48.184;16.298;2024-03-08T02:56:08;99700.19;;;2.99;100.00
43503;BME280;29098;48.184;16.298;2024-03-08T02:58:36;99629.88;;;2.67;100.00
43503;BME280;29098;48.184;16.298;2024-03-08T03:01:01;99651.47;;;2.79;100.00
43503;BME280;29098;48.184;16.298;2024-03-08T03:03:26;99659.88;;;2.82;100.00
43503;BME280;29098;48.184;16.298;2024-03-08T03:05:52;99657.97;;;2.84;100.00
43503;BME280;29098;48.184;16.298;2024-03-08T03:08:21;99649.03;;;2.66;100.00
43503;BME280;29098;48.184;16.298;2024-03-08T03:10:46;99673.53;;;2.74;100.00
43503;BME280;29098;48.184;16.298;2024-03-08T03:13:12;99678.47;;;2.78;100.00
43503;BME280;29098;48.184;16.298;2024-03-08T03:15:37;99643.34;;;2.72;100.00
43503;BME280;29098;48.184;16.298;2024-03-08T03:18:03;99628.81;;;2.69;100.00
43503;BME280;29098;48.184;16.298;2024-03-08T03:20:28;99668.06;;;2.78;100.00
43503;BME280;29098;48.184;16.298;2024-03-08T03:23:06;99629.88;;;2.67;100.00
43503;BME280;29098;48.184;16.298;2024-03-08T03:25:33;99708.97;;;2.98;100.00
43503;BME280;29098;48.184;16.298;2024-03-08T03:28:01;99669.53;;;2.92;100.00
43503;BME280;29098;48.184;16.298;2024-03-08T03:30:26;99630.06;;;2.75;100.00
43503;BME280;29098;48.184;16.298;2024-03-08T03:32:52;99703.28;;;2.93;100.00
43503;BME280;29098;48.184;16.298;2024-03-08T03:35:20;99669.13;;;2.75;100.00
43503;BME280;29098;48.184;16.298;2024-03-08T03:37:48;99656.47;;;2.82;100.00
43503;BME280;29098;48.184;16.298;2024-03-08T03:40:30;99657.97;;;2.84;100.00
43503;BME280;29098;48.184;16.298;2024-03-08T03:42:56;99625.25;;;2.70;100.00
43503;BME280;29098;48.184;16.298;2024-03-08T03:45:22;99668.03;;;2.89;100.00
43503;BME280;29098;48.184;16.298;2024-03-08T03:47:48;99634.47;;;2.74;100.00
43503;BME280;29098;48.184;16.298;2024-03-08T03:50:13;99631.41;;;2.69;100.00
43503;BME280;29098;48.184;16.298;2024-03-08T03:52:38;99669.16;;;2.96;100.00
43503;BME280;29098;48.184;16.298;2024-03-08T03:55:04;99608.25;;;2.66;100.00
43503;BME280;29098;48.184;16.298;2024-03-08T03:57:30;99659.13;;;2.92;100.00
43503;BME280;29098;48.184;16.298;2024-03-08T03:59:56;99648.72;;;2.92;100.00
43503;BME280;29098;48.184;16.298;2024-03-08T04:02:24;99624.88;;;2.75;100.00
43503;BME280;29098;48.184;16.298;2024-03-08T04:04:52;99660.47;;;2.86;100.00
43503;BME280;29098;48.184;16.298;2024-03-08T04:07:17;99694.66;;;2.93;100.00
43503;BME280;29098;48.184;16.298;2024-03-08T04:09:42;99682.78;;;3.00;100.00
43503;BME280;29098;48.184;16.298;2024-03-08T04:12:08;99640.94;;;2.80;100.00
43503;BME280;29098;48.184;16.298;2024-03-08T04:14:35;99613.19;;;2.69;100.00
43503;BME280;29098;48.184;16.298;2024-03-08T04:17:01;99668.09;;;2.99;100.00
43503;BME280;29098;48.184;16.298;2024-03-08T04:19:26;99673.00;;;2.92;100.00
43503;BME280;29098;48.184;16.298;2024-03-08T04:21:53;99668.72;;;2.91;100.00
43503;BME280;29098;48.184;16.298;2024-03-08T04:24:18;99617.41;;;2.82;100.00
43503;BME280;29098;48.184;16.298;2024-03-08T04:26:46;99623.59;;;2.69;100.00
43503;BME280;29098;48.184;16.298;2024-03-08T04:29:11;99668.34;;;2.96;100.00
43503;BME280;29098;48.184;16.298;2024-03-08T04:31:40;99692.59;;;3.08;100.00
43503;BME280;29098;48.184;16.298;2024-03-08T04:34:05;99668.56;;;3.04;100.00
43503;BME280;29098;48.184;16.298;2024-03-08T04:36:30;99677.31;;;3.03;100.00
43503;BME280;29098;48.184;16.298;2024-03-08T04:38:56;99657.00;;;2.97;100.00
43503;BME280;29098;48.184;16.298;2024-03-08T04:41:21;99653.03;;;3.03;100.00
43503;BME280;29098;48.184;16.298;2024-03-08T04:43:48;99635.69;;;2.92;100.00
43503;BME280;29098;48.184;16.298;2024-03-08T04:46:14;99616.56;;;2.81;100.00
43503;BME280;29098;48.184;16.298;2024-03-08T04:48:39;99648.69;;;3.03;100.00
43503;BME280;29098;48.184;16.298;2024-03-08T04:51:07;99638.63;;;2.98;100.00
43503;BME280;29098;48.184;16.298;2024-03-08T04:53:33;99640.78;;;2.93;100.00
43503;BME280;29098;48.184;16.298;2024-03-08T04:55:59;99601.78;;;2.82;100.00
43503;BME280;29098;48.184;16.298;2024-03-08T04:58:25;99666.03;;;3.14;100.00
43503;BME280;29098;48.184;16.298;2024-03-08T05:00:50;99638.16;;;3.05;100.00
43503;BME280;29098;48.184;16.298;2024-03-08T05:03:16;99604.03;;;2.75;100.00
43503;BME280;29098;48.184;16.298;2024-03-08T05:05:41;99657.56;;;3.00;100.00
43503;BME280;29098;48.184;16.298;2024-03-08T05:08:06;99657.06;;;3.07;100.00
43503;BME280;29098;48.184;16.298;2024-03-08T05:10:32;99609.66;;;2.92;100.00
43503;BME280;29098;48.184;16.298;2024-03-08T05:12:58;99677.16;;;3.16;100.00
43503;BME280;29098;48.184;16.298;2024-03-08T05:15:23;99605.28;;;2.92;100.00
43503;BME280;29098;48.184;16.298;2024-03-08T05:17:49;99648.19;;;3.09;100.00
43503;BME280;29098;48.184;16.298;2024-03-08T05:20:15;99634.38;;;2.97;100.00
43503;BME280;29098;48.184;16.298;2024-03-08T05:22:42;99639.44;;;2.99;100.00
43503;BME280;29098;48.184;16.298;2024-03-08T05:25:08;99634.19;;;2.89;100.00
43503;BME280;29098;48.184;16.298;2024-03-08T05:27:34;99644.84;;;2.86;100.00
43503;BME280;29098;48.184;16.298;2024-03-08T05:30:05;99633.22;;;2.90;100.00
43503;BME280;29098;48.184;16.298;2024-03-08T05:32:31;99676.25;;;3.06;100.00
43503;BME280;29098;48.184;16.298;2024-03-08T05:34:56;99637.31;;;3.04;100.00
43503;BME280;29098;48.184;16.298;2024-03-08T05:37:22;99648.03;;;3.11;100.00
43503;BME280;29098;48.184;16.298;2024-03-08T05:39:47;99668.56;;;3.25;100.00
43503;BME280;29098;48.184;16.298;2024-03-08T05:42:13;99656.81;;;3.10;100.00
43503;BME280;29098;48.184;16.298;2024-03-08T05:44:38;99607.41;;;2.66;100.00
43503;BME280;29098;48.184;16.298;2024-03-08T05:47:06;99620.00;;;2.82;100.00
43503;BME280;29098;48.184;16.298;2024-03-08T05:49:32;99648.09;;;2.99;100.00
43503;BME280;29098;48.184;16.298;2024-03-08T05:51:57;99665.75;;;2.96;100.00
43503;BME280;29098;48.184;16.298;2024-03-08T05:54:23;99644.66;;;2.99;100.00
43503;BME280;29098;48.184;16.298;2024-03-08T05:56:49;99651.16;;;3.05;100.00
43503;BME280;29098;48.184;16.298;2024-03-08T05:59:18;99681.00;;;3.00;100.00
43503;BME280;29098;48.184;16.298;2024-03-08T06:01:43;99648.59;;;2.93;100.00
43503;BME280;29098;48.184;16.298;2024-03-08T06:04:09;99676.47;;;3.14;100.00
43503;BME280;29098;48.184;16.298;2024-03-08T06:06:36;99683.69;;;3.10;100.00
43503;BME280;29098;48.184;16.298;2024-03-08T06:09:02;99652.09;;;3.04;100.00
43503;BME280;29098;48.184;16.298;2024-03-08T06:11:34;99652.34;;;3.00;100.00
43503;BME280;29098;48.184;16.298;2024-03-08T06:14:00;99664.00;;;3.18;100.00
43503;BME280;29098;48.184;16.298;2024-03-08T06:16:28;99665.09;;;3.15;100.00
43503;BME280;29098;48.184;16.298;2024-03-08T06:18:57;99646.16;;;3.13;100.00
43503;BME280;29098;48.184;16.298;2024-03-08T06:21:23;99687.53;;;3.27;100.00
43503;BME280;29098;48.184;16.298;2024-03-08T06:23:52;99641.88;;;3.12;100.00
43503;BME280;29098;48.184;16.298;2024-03-08T06:26:20;99645.38;;;3.01;100.00
43503;BME280;29098;48.184;16.298;2024-03-08T06:28:45;99625.75;;;3.39;100.00
43503;BME280;29098;48.184;16.298;2024-03-08T06:31:11;99669.09;;;3.62;100.00
43503;BME280;29098;48.184;16.298;2024-03-08T06:33:37;99695.78;;;3.54;100.00
43503;BME280;29098;48.184;16.298;2024-03-08T06:36:02;99660.00;;;3.35;100.00
43503;BME280;29098;48.184;16.298;2024-03-08T06:38:28;99641.63;;;3.15;100.00
43503;BME280;29098;48.184;16.298;2024-03-08T06:40:53;99666.63;;;3.39;100.00
43503;BME280;29098;48.184;16.298;2024-03-08T06:43:20;99661.47;;;3.27;100.00
43503;BME280;29098;48.184;16.298;2024-03-08T06:45:46;99653.19;;;3.43;100.00
43503;BME280;29098;48.184;16.298;2024-03-08T06:48:17;99683.41;;;3.98;100.00
43503;BME280;29098;48.184;16.298;2024-03-08T06:50:46;99636.53;;;3.56;100.00
43503;BME280;29098;48.184;16.298;2024-03-08T06:53:13;99705.50;;;3.94;100.00
43503;BME280;29098;48.184;16.298;2024-03-08T06:55:39;99633.31;;;3.42;100.00
43503;BME280;29098;48.184;16.298;2024-03-08T06:58:05;99643.19;;;3.70;100.00
43503;BME280;29098;48.184;16.298;2024-03-08T07:00:32;99661.19;;;3.73;100.00
43503;BME280;29098;48.184;16.298;2024-03-08T07:02:57;99692.47;;;3.73;100.00
43503;BME280;29098;48.184;16.298;2024-03-08T07:05:26;99639.28;;;3.54;100.00
43503;BME280;29098;48.184;16.298;2024-03-08T07:07:52;99636.22;;;3.49;100.00
43503;BME280;29098;48.184;16.298;2024-03-08T07:10:18;99663.56;;;3.34;100.00
43503;BME280;29098;48.184;16.298;2024-03-08T07:12:44;99667.75;;;3.46;100.00
43503;BME280;29098;48.184;16.298;2024-03-08T07:15:12;99687.97;;;3.75;100.00
43503;BME280;29098;48.184;16.298;2024-03-08T07:17:41;99665.00;;;3.69;100.00
43503;BME280;29098;48.184;16.298;2024-03-08T07:20:10;99673.28;;;3.74;100.00
43503;BME280;29098;48.184;16.298;2024-03-08T07:22:37;99680.28;;;3.74;100.00
43503;BME280;29098;48.184;16.298;2024-03-08T07:25:05;99652.66;;;3.71;100.00
43503;BME280;29098;48.184;16.298;2024-03-08T07:27:54;99673.06;;;3.87;100.00
43503;BME280;29098;48.184;16.298;2024-03-08T07:30:20;99659.53;;;3.72;100.00
43503;BME280;29098;48.184;16.298;2024-03-08T07:33:05;99668.63;;;3.78;100.00
43503;BME280;29098;48.184;16.298;2024-03-08T07:35:32;99631.28;;;3.46;100.00
43503;BME280;29098;48.184;16.298;2024-03-08T07:37:58;99647.91;;;3.76;100.00
43503;BME280;29098;48.184;16.298;2024-03-08T07:40:25;99664.56;;;3.64;100.00
43503;BME280;29098;48.184;16.298;2024-03-08T07:42:51;99704.78;;;3.92;100.00
43503;BME280;29098;48.184;16.298;2024-03-08T07:45:16;99658.00;;;3.69;100.00
43503;BME280;29098;48.184;16.298;2024-03-08T07:47:42;99667.13;;;3.75;100.00
43503;BME280;29098;48.184;16.298;2024-03-08T07:50:08;99703.53;;;3.87;100.00
43503;BME280;29098;48.184;16.298;2024-03-08T07:52:35;99714.50;;;4.11;100.00
43503;BME280;29098;48.184;16.298;2024-03-08T07:55:03;99680.06;;;3.87;100.00
43503;BME280;29098;48.184;16.298;2024-03-08T07:57:29;99704.50;;;3.86;100.00
43503;BME280;29098;48.184;16.298;2024-03-08T07:59:55;99702.97;;;3.83;100.00
43503;BME280;29098;48.184;16.298;2024-03-08T08:02:21;99685.16;;;3.88;100.00
43503;BME280;29098;48.184;16.298;2024-03-08T08:04:46;99684.63;;;3.94;100.00
43503;BME280;29098;48.184;16.298;2024-03-08T08:07:12;99681.53;;;4.10;100.00
43503;BME280;29098;48.184;16.298;2024-03-08T08:09:37;99729.22;;;3.91;100.00
43503;BME280;29098;48.184;16.298;2024-03-08T08:12:03;99668.94;;;3.84;100.00
43503;BME280;29098;48.184;16.298;2024-03-08T08:14:29;99650.97;;;3.60;100.00
43503;BME280;29098;48.184;16.298;2024-03-08T08:16:56;99690.41;;;3.67;100.00
43503;BME280;29098;48.184;16.298;2024-03-08T08:19:22;99688.28;;;3.82;100.00
43503;BME280;29098;48.184;16.298;2024-03-08T08:21:48;99666.16;;;3.76;100.00
43503;BME280;29098;48.184;16.298;2024-03-08T08:24:14;99671.81;;;3.81;100.00
43503;BME280;29098;48.184;16.298;2024-03-08T08:26:39;99644.84;;;3.71;100.00
43503;BME280;29098;48.184;16.298;2024-03-08T08:29:05;99662.84;;;3.74;100.00
43503;BME280;29098;48.184;16.298;2024-03-08T08:31:32;99680.84;;;3.77;100.00
43503;BME280;29098;48.184;16.298;2024-03-08T08:33:58;99677.97;;;3.80;100.00
43503;BME280;29098;48.184;16.298;2024-03-08T08:36:26;99708.41;;;4.01;100.00
43503;BME280;29098;48.184;16.298;2024-03-08T08:38:55;99685.41;;;3.85;100.00
43503;BME280;29098;48.184;16.298;2024-03-08T08:41:21;99691.63;;;3.94;100.00
43503;BME280;29098;48.184;16.298;2024-03-08T08:43:48;99664.50;;;3.54;100.00
43503;BME280;29098;48.184;16.298;2024-03-08T08:46:17;99685.28;;;3.87;100.00
43503;BME280;29098;48.184;16.298;2024-03-08T08:48:43;99672.06;;;3.78;100.00
43503;BME280;29098;48.184;16.298;2024-03-08T08:51:12;99709.25;;;4.02;100.00
43503;BME280;29098;48.184;16.298;2024-03-08T08:53:39;99710.16;;;3.91;100.00
43503;BME280;29098;48.184;16.298;2024-03-08T08:56:13;99678.31;;;3.66;100.00
43503;BME280;29098;48.184;16.298;2024-03-08T08:58:41;99666.97;;;3.77;100.00
43503;BME280;29098;48.184;16.298;2024-03-08T09:01:08;99696.53;;;3.87;100.00
43503;BME280;29098;48.184;16.298;2024-03-08T09:03:38;99678.06;;;3.69;100.00
43503;BME280;29098;48.184;16.298;2024-03-08T09:06:06;99649.97;;;3.51;100.00
43503;BME280;29098;48.184;16.298;2024-03-08T09:08:37;99676.66;;;3.65;100.00
43503;BME280;29098;48.184;16.298;2024-03-08T09:11:03;99665.13;;;3.67;100.00
43503;BME280;29098;48.184;16.298;2024-03-08T09:13:29;99662.41;;;3.69;100.00
43503;BME280;29098;48.184;16.298;2024-03-08T09:15:54;99649.41;;;3.48;100.00
43503;BME280;29098;48.184;16.298;2024-03-08T09:18:20;99623.75;;;3.53;100.00
43503;BME280;29098;48.184;16.298;2024-03-08T09:20:45;99664.16;;;3.59;100.00
43503;BME280;29098;48.184;16.298;2024-03-08T09:23:12;99660.19;;;3.64;100.00
43503;BME280;29098;48.184;16.298;2024-03-08T09:25:37;99703.84;;;3.93;100.00
43503;BME280;29098;48.184;16.298;2024-03-08T09:28:03;99680.72;;;3.79;100.00
43503;BME280;29098;48.184;16.298;2024-03-08T09:30:28;99647.72;;;3.68;100.00
43503;BME280;29098;48.184;16.298;2024-03-08T09:32:54;99666.94;;;3.67;100.00
43503;BME280;29098;48.184;16.298;2024-03-08T09:35:19;99642.56;;;3.56;100.00
43503;BME280;29098;48.184;16.298;2024-03-08T09:37:45;99655.50;;;3.58;100.00
43503;BME280;29098;48.184;16.298;2024-03-08T09:40:13;99650.09;;;3.50;100.00
43503;BME280;29098;48.184;16.298;2024-03-08T09:42:41;99683.84;;;3.73;100.00
43503;BME280;29098;48.184;16.298;2024-03-08T09:45:11;99668.75;;;3.76;100.00
43503;BME280;29098;48.184;16.298;2024-03-08T09:47:41;99706.97;;;3.87;100.00
43503;BME280;29098;48.184;16.298;2024-03-08T09:50:08;99672.16;;;3.98;100.00
43503;BME280;29098;48.184;16.298;2024-03-08T09:52:37;99697.34;;;4.09;100.00
43503;BME280;29098;48.184;16.298;2024-03-08T09:55:05;99649.28;;;3.80;100.00
43503;BME280;29098;48.184;16.298;2024-03-08T09:57:32;99684.53;;;4.06;100.00
43503;BME280;29098;48.184;16.298;2024-03-08T09:59:58;99669.72;;;4.06;100.00
43503;BME280;29098;48.184;16.298;2024-03-08T10:02:23;99659.47;;;3.83;100.00
43503;BME280;29098;48.184;16.298;2024-03-08T10:04:48;99626.41;;;3.63;100.00
43503;BME280;29098;48.184;16.298;2024-03-08T10:07:18;99684.25;;;3.99;100.00
43503;BME280;29098;48.184;16.298;2024-03-08T10:09:44;99647.41;;;3.92;100.00
43503;BME280;29098;48.184;16.298;2024-03-08T10:12:16;99663.63;;;3.96;100.00
43503;BME280;29098;48.184;16.298;2024-03-08T10:14:43;99646.81;;;4.10;100.00
43503;BME280;29098;48.184;16.298;2024-03-08T10:17:08;99632.41;;;4.16;100.00
43503;BME280;29098;48.184;16.298;2024-03-08T10:19:34;99695.34;;;4.32;100.00
43503;BME280;29098;48.184;16.298;2024-03-08T10:22:00;99681.34;;;4.33;100.00
43503;BME280;29098;48.184;16.298;2024-03-08T10:24:25;99649.34;;;4.31;100.00
43503;BME280;29098;48.184;16.298;2024-03-08T10:27:01;99626.28;;;4.36;100.00
43503;BME280;29098;48.184;16.298;2024-03-08T10:29:30;99607.16;;;4.36;100.00
43503;BME280;29098;48.184;16.298;2024-03-08T10:31:56;99670.19;;;4.82;100.00
43503;BME280;29098;48.184;16.298;2024-03-08T10:34:22;99638.13;;;4.90;100.00
43503;BME280;29098;48.184;16.298;2024-03-08T10:36:50;99644.75;;;4.94;100.00
43503;BME280;29098;48.184;16.298;2024-03-08T10:39:24;99642.69;;;4.88;100.00
43503;BME280;29098;48.184;16.298;2024-03-08T10:41:57;99677.06;;;5.23;100.00
43503;BME280;29098;48.184;16.298;2024-03-08T10:47:17;99627.28;;;4.75;100.00
43503;BME280;29098;48.184;16.298;2024-03-08T10:50:10;99659.84;;;5.10;100.00
43503;BME280;29098;48.184;16.298;2024-03-08T10:52:39;99621.38;;;4.92;100.00
43503;BME280;29098;48.184;16.298;2024-03-08T10:55:07;99617.91;;;4.92;100.00
43503;BME280;29098;48.184;16.298;2024-03-08T10:57:38;99623.97;;;4.92;100.00
43503;BME280;29098;48.184;16.298;2024-03-08T11:00:04;99623.69;;;4.96;100.00
43503;BME280;29098;48.184;16.298;2024-03-08T11:02:33;99659.19;;;5.18;100.00
43503;BME280;29098;48.184;16.298;2024-03-08T11:04:58;99624.53;;;5.06;100.00
43503;BME280;29098;48.184;16.298;2024-03-08T11:07:25;99630.31;;;5.00;100.00
43503;BME280;29098;48.184;16.298;2024-03-08T11:09:52;99593.19;;;4.96;100.00
43503;BME280;29098;48.184;16.298;2024-03-08T11:12:25;99650.50;;;5.27;100.00
43503;BME280;29098;48.184;16.298;2024-03-08T11:14:54;99611.41;;;5.26;100.00
43503;BME280;29098;48.184;16.298;2024-03-08T11:19:58;99597.50;;;5.35;100.00
43503;BME280;29098;48.184;16.298;2024-03-08T11:22:33;99640.16;;;5.45;100.00
43503;BME280;29098;48.184;16.298;2024-03-08T11:25:03;99593.91;;;5.46;100.00
43503;BME280;29098;48.184;16.298;2024-03-08T11:27:33;99629.53;;;5.95;100.00
43503;BME280;29098;48.184;16.298;2024-03-08T11:30:03;99635.00;;;6.01;100.00
43503;BME280;29098;48.184;16.298;2024-03-08T11:32:36;99613.63;;;5.78;100.00
43503;BME280;29098;48.184;16.298;2024-03-08T11:35:06;99632.50;;;5.82;100.00
43503;BME280;29098;48.184;16.298;2024-03-08T11:37:33;99616.53;;;5.75;100.00
43503;BME280;29098;48.184;16.298;2024-03-08T11:40:11;99567.13;;;5.72;100.00
43503;BME280;29098;48.184;16.298;2024-03-08T11:42:39;99588.38;;;5.87;100.00
43503;BME280;29098;48.184;16.298;2024-03-08T11:45:09;99584.50;;;6.19;100.00
43503;BME280;29098;48.184;16.298;2024-03-08T11:47:37;99596.72;;;6.10;100.00
43503;BME280;29098;48.184;16.298;2024-03-08T11:50:06;99590.06;;;6.16;100.00
43503;BME280;29098;48.184;16.298;2024-03-08T11:52:36;99612.63;;;6.63;100.00
43503;BME280;29098;48.184;16.298;2024-03-08T11:55:02;99560.91;;;6.47;100.00
43503;BME280;29098;48.184;16.298;2024-03-08T11:57:28;99577.22;;;6.59;100.00
43503;BME280;29098;48.184;16.298;2024-03-08T11:59:55;99561.56;;;6.49;100.00
43503;BME280;29098;48.184;16.298;2024-03-08T12:02:31;99571.53;;;6.64;100.00
43503;BME280;29098;48.184;16.298;2024-03-08T12:04:57;99580.44;;;6.71;100.00
43503;BME280;29098;48.184;16.298;2024-03-08T12:07:25;99564.56;;;6.54;100.00
43503;BME280;29098;48.184;16.298;2024-03-08T12:12:48;99539.88;;;6.57;100.00
43503;BME280;29098;48.184;16.298;2024-03-08T12:15:22;99578.13;;;6.68;100.00
43503;BME280;29098;48.184;16.298;2024-03-08T12:17:51;99547.28;;;6.62;100.00
43503;BME280;29098;48.184;16.298;2024-03-08T12:22:44;99524.03;;;6.40;100.00
43503;BME280;29098;48.184;16.298;2024-03-08T12:25:13;99586.41;;;6.81;100.00
43503;BME280;29098;48.184;16.298;2024-03-08T12:27:43;99548.63;;;6.66;100.00
43503;BME280;29098;48.184;16.298;2024-03-08T12:30:35;99531.50;;;6.71;100.00
43503;BME280;29098;48.184;16.298;2024-03-08T12:33:00;99564.09;;;6.95;100.00
43503;BME280;29098;48.184;16.298;2024-03-08T12:35:28;99566.81;;;6.85;100.00
43503;BME280;29098;48.184;16.298;2024-03-08T12:37:56;99544.97;;;6.58;100.00
43503;BME280;29098;48.184;16.298;2024-03-08T12:40:26;99511.16;;;6.47;100.00
43503;BME280;29098;48.184;16.298;2024-03-08T12:42:54;99504.22;;;6.38;100.00
43503;BME280;29098;48.184;16.298;2024-03-08T12:45:20;99527.25;;;6.52;100.00
43503;BME280;29098;48.184;16.298;2024-03-08T12:47:47;99548.13;;;6.89;100.00
43503;BME280;29098;48.184;16.298;2024-03-08T12:50:13;99544.97;;;6.58;100.00
43503;BME280;29098;48.184;16.298;2024-03-08T12:52:38;99568.06;;;6.81;100.00
43503;BME280;29098;48.184;16.298;2024-03-08T12:55:04;99523.34;;;6.56;100.00
43503;BME280;29098;48.184;16.298;2024-03-08T12:57:33;99574.00;;;6.83;100.00
43503;BME280;29098;48.184;16.298;2024-03-08T13:00:00;99529.09;;;6.60;100.00